Time;durP1;ratioP1;P1;durP2;ratioP2;P2;SDS_P1;SDS_P2;PMS_P1;PMS_P2;Temp;Humidity;BMP_temperature;BMP_pressure;BME280_temperature;BME280_humidity;BME280_pressure;Samples;Min_cycle;Max_cycle;Signal;HPM_P1;HPM_P2
2023/04/13 00:01:23;;;;;;;18.50;17.40;;;7.10;99.90;;;;;;5149030;27;20458;-68
2023/04/13 00:03:50;;;;;;;18.70;17.50;;;7.00;99.90;;;;;;5149397;27;20487;-68
2023/04/13 00:06:18;;;;;;;36.47;18.90;;;6.90;99.90;;;;;;5148905;27;20447;-67
2023/04/13 00:08:46;;;;;;;19.40;18.20;;;6.90;99.90;;;;;;5148740;27;20459;-68
2023/04/13 00:11:14;;;;;;;19.70;18.30;;;6.90;99.90;;;;;;5145487;27;20498;-68
2023/04/13 00:13:46;;;;;;;19.70;18.60;;;6.80;99.90;;;;;;5151440;27;20547;-67
2023/04/13 00:16:15;;;;;;;19.37;18.37;;;6.80;99.90;;;;;;5146912;27;20461;-68
2023/04/13 00:18:42;;;;;;;18.70;17.70;;;6.80;99.90;;;;;;5149762;27;20455;-68
2023/04/13 00:21:09;;;;;;;18.83;17.63;;;6.70;99.90;;;;;;5152665;27;20462;-68
2023/04/13 00:23:36;;;;;;;18.33;17.20;;;6.70;99.90;;;;;;5152923;27;20535;-68
2023/04/13 00:26:04;;;;;;;19.00;17.97;;;6.80;99.90;;;;;;5152735;27;20598;-67
2023/04/13 00:28:32;;;;;;;18.83;17.77;;;6.70;99.90;;;;;;5152369;27;20909;-69
2023/04/13 00:30:59;;;;;;;19.43;18.20;;;6.70;99.90;;;;;;5152653;27;20543;-69
2023/04/13 00:33:26;;;;;;;17.27;16.47;;;6.70;99.90;;;;;;5152204;27;20454;-68
2023/04/13 00:35:52;;;;;;;16.73;15.93;;;6.60;99.90;;;;;;5152016;27;20479;-69
2023/04/13 00:38:22;;;;;;;15.40;14.70;;;6.70;99.90;;;;;;5151492;27;20942;-69
2023/04/13 00:40:50;;;;;;;15.40;14.60;;;6.70;99.90;;;;;;5136444;27;20949;-69
2023/04/13 00:43:18;;;;;;;15.40;14.70;;;6.70;99.90;;;;;;5150148;27;20937;-68
2023/04/13 00:45:45;;;;;;;15.03;14.33;;;6.70;99.90;;;;;;5150621;27;20894;-68
2023/04/13 00:48:13;;;;;;;13.83;13.23;;;6.60;99.90;;;;;;5149662;27;20447;-68
2023/04/13 00:50:42;;;;;;;15.37;14.40;;;6.60;99.90;;;;;;5151807;27;20487;-68
2023/04/13 00:53:12;;;;;;;13.30;12.70;;;6.50;99.90;;;;;;5151592;27;20518;-68
2023/04/13 00:55:41;;;;;;;13.20;12.50;;;6.60;99.90;;;;;;5151407;27;20498;-68
2023/04/13 00:58:08;;;;;;;12.47;11.97;;;6.70;99.90;;;;;;5151716;27;20816;-68
2023/04/13 01:00:37;;;;;;;13.13;12.53;;;6.70;99.90;;;;;;5151733;27;20510;-68
2023/04/13 01:03:05;;;;;;;13.07;12.10;;;6.70;99.90;;;;;;5145884;27;20816;-69
2023/04/13 01:05:36;;;;;;;11.80;11.20;;;6.80;99.90;;;;;;5141083;27;20482;-68
2023/04/13 01:08:10;;;;;;;11.80;11.30;;;6.80;99.90;;;;;;5150229;27;20831;-68
2023/04/13 01:10:49;;;;;;;12.30;11.70;;;6.80;99.90;;;;;;5148351;27;20829;-69
2023/04/13 01:13:21;;;;;;;12.20;11.70;;;6.80;99.90;;;;;;5148822;27;20453;-68
2023/04/13 01:16:00;;;;;;;13.03;12.33;;;6.90;99.90;;;;;;5149501;27;20463;-68
2023/04/13 01:18:29;;;;;;;12.80;12.10;;;6.80;99.90;;;;;;5149492;27;20457;-68
2023/04/13 01:20:56;;;;;;;11.83;10.90;;;6.80;99.90;;;;;;5149610;27;20460;-68
2023/04/13 01:23:30;;;;;;;10.50;10.10;;;6.80;99.90;;;;;;5151510;27;21092;-68
2023/04/13 01:26:02;;;;;;;11.17;10.67;;;6.80;99.90;;;;;;5151024;27;20562;-68
2023/04/13 01:28:32;;;;;;;10.80;10.10;;;6.80;99.90;;;;;;5150782;27;20837;-68
2023/04/13 01:31:00;;;;;;;9.93;9.53;;;6.80;99.90;;;;;;5150486;27;20455;-68
2023/04/13 01:33:29;;;;;;;10.40;9.50;;;6.80;99.90;;;;;;5150786;27;20498;-68
2023/04/13 01:35:59;;;;;;;10.23;9.33;;;6.80;99.90;;;;;;5150791;27;20834;-68
2023/04/13 01:38:26;;;;;;;9.47;9.07;;;6.80;99.90;;;;;;5137263;27;20443;-68
2023/04/13 01:40:53;;;;;;;9.13;8.73;;;6.70;99.90;;;;;;5150535;27;20526;-69
2023/04/13 01:43:20;;;;;;;10.87;9.10;;;6.80;99.90;;;;;;5150880;27;20485;-68
2023/04/13 01:45:59;;;;;;;9.27;8.87;;;6.80;99.90;;;;;;5150296;27;20532;-68
2023/04/13 01:48:31;;;;;;;9.40;8.90;;;6.80;99.90;;;;;;5150259;27;20458;-69
2023/04/13 01:51:03;;;;;;;9.50;9.00;;;6.90;99.90;;;;;;5150791;27;20854;-68
2023/04/13 01:53:36;;;;;;;9.37;8.90;;;6.90;99.90;;;;;;5150182;27;20496;-68
2023/04/13 01:56:05;;;;;;;9.97;9.30;;;6.90;99.90;;;;;;5150627;27;20530;-68
2023/04/13 01:58:34;;;;;;;10.67;9.70;;;7.00;99.90;;;;;;5150133;27;20455;-68
2023/04/13 02:01:06;;;;;;;8.23;7.93;;;7.10;99.90;;;;;;5136315;27;20545;-68
2023/04/13 02:03:34;;;;;;;8.20;7.80;;;7.20;99.90;;;;;;5149137;27;20510;-68
2023/04/13 02:06:01;;;;;;;8.63;8.23;;;7.20;99.90;;;;;;5150694;27;20491;-68
2023/04/13 02:08:28;;;;;;;8.27;7.87;;;7.30;99.90;;;;;;5150562;27;20922;-68
2023/04/13 02:10:55;;;;;;;8.90;8.10;;;7.30;99.90;;;;;;5150637;27;20857;-68
2023/04/13 02:13:23;;;;;;;8.60;8.30;;;7.40;99.90;;;;;;5150724;27;20458;-68
2023/04/13 02:15:49;;;;;;;8.10;7.80;;;7.40;99.90;;;;;;5150317;27;20956;-68
2023/04/13 02:18:17;;;;;;;9.50;8.90;;;7.40;99.90;;;;;;5150360;27;20493;-68
2023/04/13 02:20:44;;;;;;;8.43;8.13;;;7.40;99.90;;;;;;5150163;27;20536;-68
2023/04/13 02:23:13;;;;;;;8.60;8.20;;;7.50;99.90;;;;;;5151008;27;20487;-68
2023/04/13 02:25:42;;;;;;;8.60;8.30;;;7.40;99.90;;;;;;5150403;27;20542;-68
2023/04/13 02:28:10;;;;;;;8.80;8.40;;;7.40;99.90;;;;;;5149924;27;20546;-68
2023/04/13 02:30:36;;;;;;;9.47;8.63;;;7.50;99.90;;;;;;5150062;27;20450;-68
2023/04/13 02:33:04;;;;;;;9.37;8.70;;;7.50;99.90;;;;;;5149944;27;20538;-67
2023/04/13 02:35:32;;;;;;;8.83;8.43;;;7.50;99.90;;;;;;5150078;27;20582;-68
2023/04/13 02:38:00;;;;;;;8.60;8.30;;;7.50;99.90;;;;;;5150251;27;20463;-68
2023/04/13 02:40:28;;;;;;;9.10;8.70;;;7.50;99.90;;;;;;5149958;27;20953;-68
2023/04/13 02:42:56;;;;;;;9.60;8.90;;;7.50;99.90;;;;;;5148119;27;20482;-68
2023/04/13 02:45:23;;;;;;;9.03;8.73;;;7.50;99.90;;;;;;5140387;27;20483;-68
2023/04/13 02:47:50;;;;;;;9.60;9.17;;;7.50;99.90;;;;;;5143824;27;20466;-67
2023/04/13 02:50:18;;;;;;;10.07;9.47;;;7.60;99.90;;;;;;5148507;27;20455;-68
2023/04/13 02:52:47;;;;;;;9.67;9.10;;;7.60;99.90;;;;;;5148775;27;21087;-68
2023/04/13 02:55:13;;;;;;;9.63;9.23;;;7.50;99.90;;;;;;5148442;27;20478;-69
2023/04/13 02:57:41;;;;;;;8.90;8.60;;;7.60;99.90;;;;;;5145033;27;20793;-68
2023/04/13 03:00:10;;;;;;;10.60;9.33;;;7.50;99.90;;;;;;5148142;27;21053;-68
2023/04/13 03:02:37;;;;;;;9.20;8.80;;;7.50;99.90;;;;;;5144230;27;20486;-68
2023/04/13 03:05:06;;;;;;;8.63;8.23;;;7.40;99.90;;;;;;5149700;27;20479;-68
2023/04/13 03:07:35;;;;;;;8.43;8.13;;;7.40;99.90;;;;;;5142984;27;20895;-68
2023/04/13 03:10:04;;;;;;;8.60;8.30;;;7.30;99.90;;;;;;5146183;27;20553;-69
2023/04/13 03:12:32;;;;;;;8.10;7.50;;;7.20;99.90;;;;;;5149916;27;20515;-68
2023/04/13 03:15:00;;;;;;;7.67;7.37;;;7.20;99.90;;;;;;5149730;27;20511;-68
2023/04/13 03:17:28;;;;;;;6.70;6.40;;;7.10;99.90;;;;;;5149508;27;20500;-68
2023/04/13 03:19:56;;;;;;;6.90;6.60;;;7.10;99.90;;;;;;5149577;27;20461;-68
2023/04/13 03:22:23;;;;;;;7.10;6.80;;;7.10;99.90;;;;;;5149494;27;20474;-67
2023/04/13 03:24:50;;;;;;;7.03;6.43;;;7.10;99.90;;;;;;5149642;27;20985;-68
2023/04/13 03:27:21;;;;;;;6.60;6.40;;;7.10;99.90;;;;;;5149930;27;20459;-68
2023/04/13 03:29:48;;;;;;;7.10;6.70;;;7.10;99.90;;;;;;5149017;27;20465;-68
2023/04/13 03:32:15;;;;;;;8.07;7.27;;;7.10;99.90;;;;;;5143859;27;20460;-68
2023/04/13 03:34:42;;;;;;;7.10;6.70;;;7.10;99.90;;;;;;5149586;27;20915;-68
2023/04/13 03:37:10;;;;;;;6.57;6.37;;;7.00;99.90;;;;;;5149889;27;20550;-67
2023/04/13 03:39:38;;;;;;;8.30;8.00;;;7.00;99.90;;;;;;5149713;27;20643;-68
2023/04/13 03:42:06;;;;;;;9.20;8.70;;;7.00;99.90;;;;;;5149655;27;20581;-68
2023/04/13 03:44:34;;;;;;;8.97;8.67;;;6.90;99.90;;;;;;5149398;27;20459;-68
2023/04/13 03:47:01;;;;;;;9.00;8.50;;;6.90;99.90;;;;;;5149016;27;20493;-68
2023/04/13 03:49:30;;;;;;;8.20;7.90;;;6.90;99.90;;;;;;5149281;27;20870;-68
2023/04/13 03:51:57;;;;;;;9.00;8.60;;;6.80;99.90;;;;;;5149676;27;20547;-68
2023/04/13 03:54:24;;;;;;;8.33;7.93;;;6.90;99.90;;;;;;5151557;27;20496;-68
2023/04/13 03:56:53;;;;;;;7.57;7.27;;;6.90;99.90;;;;;;5136057;27;20464;-68
2023/04/13 03:59:20;;;;;;;7.57;7.27;;;6.90;99.90;;;;;;5146286;27;20491;-68
2023/04/13 04:01:48;;;;;;;8.53;7.90;;;6.90;99.90;;;;;;5152856;27;20450;-67
2023/04/13 04:04:15;;;;;;;7.17;6.97;;;6.80;99.90;;;;;;5152400;27;20532;-68
2023/04/13 04:06:43;;;;;;;7.90;7.50;;;6.90;99.90;;;;;;5152327;27;20819;-68
2023/04/13 04:09:10;;;;;;;7.70;7.30;;;6.80;99.90;;;;;;5152328;27;20491;-68
2023/04/13 04:11:36;;;;;;;6.77;6.57;;;6.80;99.90;;;;;;5152650;27;20463;-68
2023/04/13 04:14:03;;;;;;;7.33;7.03;;;6.80;99.90;;;;;;5156123;27;20586;-68
2023/04/13 04:16:30;;;;;;;7.33;6.93;;;6.80;99.90;;;;;;5152290;27;20467;-67
2023/04/13 04:18:59;;;;;;;6.53;6.33;;;6.80;99.90;;;;;;5152454;27;20462;-68
2023/04/13 04:21:32;;;;;;;6.90;6.40;;;6.80;99.90;;;;;;5152341;27;20549;-68
2023/04/13 04:24:00;;;;;;;6.90;6.60;;;6.80;99.90;;;;;;5152359;27;20863;-68
2023/04/13 04:26:28;;;;;;;5.67;5.43;;;6.90;99.90;;;;;;5151335;27;20481;-68
2023/04/13 04:29:00;;;;;;;5.73;5.53;;;6.80;99.90;;;;;;5151786;27;21194;-68
2023/04/13 04:31:30;;;;;;;6.27;5.80;;;6.80;99.90;;;;;;5143727;27;20930;-68
2023/04/13 04:33:59;;;;;;;5.00;4.80;;;6.80;99.90;;;;;;5151984;27;20452;-68
2023/04/13 04:36:26;;;;;;;5.30;5.10;;;6.90;99.90;;;;;;5151936;27;20467;-68
2023/04/13 04:39:00;;;;;;;5.00;4.90;;;6.80;99.90;;;;;;5147346;27;20458;-68
2023/04/13 04:41:27;;;;;;;7.27;7.00;;;6.90;99.90;;;;;;5145936;27;20574;-68
2023/04/13 04:43:55;;;;;;;8.60;8.10;;;6.80;99.90;;;;;;5151530;27;20476;-68
2023/04/13 04:46:24;;;;;;;7.40;7.20;;;6.90;99.90;;;;;;5151615;27;20985;-68
2023/04/13 04:48:52;;;;;;;7.60;7.30;;;6.80;99.90;;;;;;5151426;27;20502;-69
2023/04/13 04:51:26;;;;;;;7.90;7.60;;;6.80;99.90;;;;;;5151686;27;20998;-68
2023/04/13 04:53:53;;;;;;;7.50;7.27;;;6.80;99.90;;;;;;5151730;27;20945;-68
2023/04/13 04:56:21;;;;;;;7.47;7.27;;;6.80;99.90;;;;;;5151407;27;20902;-68
2023/04/13 04:58:48;;;;;;;8.20;7.80;;;6.70;99.90;;;;;;5149459;27;20499;-68
2023/04/13 05:01:16;;;;;;;8.33;7.73;;;6.70;99.90;;;;;;5140461;27;20510;-69
2023/04/13 05:03:43;;;;;;;7.37;7.17;;;6.60;99.90;;;;;;5144017;27;20452;-67
2023/04/13 05:06:11;;;;;;;7.90;7.50;;;6.50;99.90;;;;;;5150330;27;20493;-68
2023/04/13 05:08:40;;;;;;;7.47;7.27;;;6.50;99.90;;;;;;5150818;27;20487;-68
2023/04/13 05:11:07;;;;;;;8.00;7.70;;;6.40;99.90;;;;;;5150727;27;20485;-68
2023/04/13 05:13:34;;;;;;;8.37;7.97;;;6.40;99.90;;;;;;5142477;27;20841;-68
2023/04/13 05:16:04;;;;;;;7.90;7.50;;;6.40;99.90;;;;;;5151129;27;20465;-68
2023/04/13 05:18:43;;;;;;;6.90;6.70;;;6.40;99.90;;;;;;5151178;27;20528;-68
2023/04/13 05:21:09;;;;;;;6.33;6.13;;;6.50;99.90;;;;;;5150981;27;20463;-68
2023/04/13 05:23:37;;;;;;;7.00;6.80;;;6.50;99.90;;;;;;5151118;27;20855;-68
2023/04/13 05:26:07;;;;;;;6.50;6.20;;;6.50;99.90;;;;;;5150720;27;20479;-68
2023/04/13 05:28:34;;;;;;;6.63;6.33;;;6.50;99.90;;;;;;5150397;27;20466;-68
2023/04/13 05:31:02;;;;;;;6.33;6.13;;;6.60;99.90;;;;;;5150556;27;20477;-68
2023/04/13 05:33:29;;;;;;;6.50;5.90;;;6.60;99.90;;;;;;5145351;27;20450;-69
2023/04/13 05:35:56;;;;;;;5.90;5.70;;;6.60;99.90;;;;;;5137228;27;20467;-69
2023/04/13 05:38:23;;;;;;;5.87;5.63;;;6.60;99.90;;;;;;5139340;27;20463;-69
2023/04/13 05:40:51;;;;;;;5.30;5.10;;;6.80;99.90;;;;;;5147377;27;20515;-68
2023/04/13 05:43:19;;;;;;;4.80;4.70;;;6.90;99.90;;;;;;5142193;27;20491;-68
2023/04/13 05:45:46;;;;;;;4.40;4.30;;;7.00;99.90;;;;;;5135347;27;20466;-69
2023/04/13 05:48:14;;;;;;;5.40;5.03;;;6.90;99.90;;;;;;5148380;27;20491;-68
2023/04/13 05:50:41;;;;;;;4.83;4.63;;;7.00;99.90;;;;;;5149731;27;20864;-68
2023/04/13 05:53:09;;;;;;;4.47;4.37;;;7.00;99.90;;;;;;5148363;27;20455;-68
2023/04/13 05:55:37;;;;;;;5.60;5.40;;;6.90;99.90;;;;;;5148596;27;21178;-69
2023/04/13 05:58:04;;;;;;;5.53;5.03;;;6.90;99.90;;;;;;5148675;27;20965;-68
2023/04/13 06:00:33;;;;;;;4.57;4.47;;;6.90;99.90;;;;;;5148665;27;20876;-68
2023/04/13 06:03:00;;;;;;;6.77;6.40;;;7.00;99.90;;;;;;5148364;27;20990;-68
2023/04/13 06:05:28;;;;;;;5.37;4.80;;;7.00;99.90;;;;;;5148401;27;20463;-69
2023/04/13 06:07:55;;;;;;;4.30;4.20;;;7.10;99.90;;;;;;5140099;27;20486;-68
2023/04/13 06:10:22;;;;;;;5.00;4.90;;;7.10;99.90;;;;;;5140373;27;20463;-68
2023/04/13 06:12:51;;;;;;;6.00;5.70;;;7.20;99.90;;;;;;5139051;27;20845;-68
2023/04/13 06:15:19;;;;;;;4.70;4.60;;;7.30;99.90;;;;;;5148318;27;20450;-69
2023/04/13 06:17:50;;;;;;;5.30;5.10;;;7.30;99.90;;;;;;5147986;27;20459;-68
2023/04/13 06:20:17;;;;;;;6.10;5.70;;;7.30;99.90;;;;;;5140904;27;20530;-68
2023/04/13 06:22:44;;;;;;;5.00;4.90;;;7.30;99.90;;;;;;5147878;27;20515;-68
2023/04/13 06:25:10;;;;;;;6.20;5.73;;;7.40;99.90;;;;;;5148817;27;20511;-69
2023/04/13 06:27:38;;;;;;;6.43;6.10;;;7.40;99.90;;;;;;5148146;27;20722;-68
2023/04/13 06:30:06;;;;;;;6.10;5.80;;;7.40;99.90;;;;;;5143592;27;20456;-68
2023/04/13 06:32:33;;;;;;;5.83;5.60;;;7.50;99.90;;;;;;5143659;27;20490;-68
2023/04/13 06:35:02;;;;;;;6.63;6.03;;;7.50;99.90;;;;;;5147214;27;20522;-69
2023/04/13 06:37:29;;;;;;;6.37;6.17;;;7.60;99.90;;;;;;5148040;27;20559;-69
2023/04/13 06:39:58;;;;;;;6.97;6.47;;;7.60;99.90;;;;;;5140525;27;20566;-69
2023/04/13 06:42:24;;;;;;;7.03;6.73;;;7.80;99.90;;;;;;5145190;27;20474;-69
2023/04/13 06:44:51;;;;;;;7.30;7.00;;;8.00;99.90;;;;;;5137809;27;20468;-68
2023/04/13 06:47:19;;;;;;;7.67;7.27;;;8.00;99.90;;;;;;5143469;27;20522;-68
2023/04/13 06:49:47;;;;;;;7.10;6.90;;;8.10;99.90;;;;;;5142644;27;20465;-68
2023/04/13 06:52:15;;;;;;;7.90;7.50;;;8.20;99.90;;;;;;5147488;27;20459;-68
2023/04/13 06:54:42;;;;;;;8.77;8.27;;;8.30;99.90;;;;;;5148112;27;20467;-68
2023/04/13 06:57:09;;;;;;;8.17;7.87;;;8.20;99.90;;;;;;5147687;27;21015;-69
2023/04/13 06:59:36;;;;;;;8.10;7.80;;;8.40;99.90;;;;;;5146118;27;20443;-68
2023/04/13 07:02:03;;;;;;;7.90;7.40;;;8.50;99.90;;;;;;5144366;27;20459;-68
2023/04/13 07:04:30;;;;;;;8.77;8.47;;;8.60;99.90;;;;;;5140706;27;20518;-68
2023/04/13 07:06:57;;;;;;;9.23;8.83;;;8.70;99.90;;;;;;5145129;27;20895;-68
2023/04/13 07:09:26;;;;;;;9.37;8.97;;;8.70;99.90;;;;;;5147421;27;20778;-69
2023/04/13 07:11:53;;;;;;;9.73;9.33;;;8.90;99.90;;;;;;5144479;27;20455;-69
2023/04/13 07:14:19;;;;;;;9.80;9.40;;;9.20;99.90;;;;;;5148060;27;20934;-68
2023/04/13 07:16:46;;;;;;;11.23;10.53;;;9.40;99.90;;;;;;5147237;27;20958;-69
2023/04/13 07:19:13;;;;;;;10.33;9.83;;;9.50;99.90;;;;;;5147073;27;20451;-69
2023/04/13 07:21:40;;;;;;;11.50;11.00;;;9.60;99.90;;;;;;5148166;27;20508;-68
2023/04/13 07:24:08;;;;;;;11.80;11.30;;;9.40;99.90;;;;;;5147058;27;20452;-69
2023/04/13 07:26:39;;;;;;;11.80;11.20;;;9.50;99.90;;;;;;5147785;27;20486;-68
2023/04/13 07:29:12;;;;;;;12.63;12.03;;;9.40;99.90;;;;;;5150151;27;20496;-69
2023/04/13 07:31:39;;;;;;;12.47;11.97;;;9.50;99.90;;;;;;5152019;27;20499;-69
2023/04/13 07:34:06;;;;;;;12.27;11.70;;;9.30;99.90;;;;;;5151649;27;20455;-66
2023/04/13 07:36:32;;;;;;;58.90;12.83;;;9.30;99.90;;;;;;5152439;27;20462;-69
2023/04/13 07:39:00;;;;;;;12.00;11.50;;;9.30;99.90;;;;;;5151326;27;21088;-69
2023/04/13 07:41:27;;;;;;;12.13;11.53;;;9.40;99.90;;;;;;5151466;27;20481;-68
2023/04/13 07:43:56;;;;;;;11.63;11.13;;;9.50;99.90;;;;;;5151811;27;20941;-68
2023/04/13 07:46:25;;;;;;;13.43;12.63;;;9.50;99.90;;;;;;5151543;27;20455;-69
2023/04/13 07:48:53;;;;;;;13.03;12.37;;;9.60;99.90;;;;;;5151146;27;20998;-69
2023/04/13 07:51:20;;;;;;;13.20;12.60;;;9.70;99.90;;;;;;5151357;27;20503;-69
2023/04/13 07:53:47;;;;;;;13.00;12.40;;;9.80;99.90;;;;;;5151429;27;20527;-68
2023/04/13 07:56:14;;;;;;;15.23;13.90;;;10.00;99.90;;;;;;5151764;27;20452;-68
2023/04/13 07:58:41;;;;;;;14.17;13.40;;;10.10;99.90;;;;;;5150678;27;20480;-67
2023/04/13 08:01:10;;;;;;;13.60;13.00;;;10.20;99.90;;;;;;5151398;27;20558;-69
2023/04/13 08:03:37;;;;;;;14.60;13.20;;;9.90;99.90;;;;;;5150692;27;20937;-69
2023/04/13 08:06:06;;;;;;;15.20;14.10;;;10.00;99.90;;;;;;5151387;27;20451;-68
2023/04/13 08:08:33;;;;;;;14.17;13.27;;;10.00;99.90;;;;;;5150622;27;20586;-69
2023/04/13 08:11:00;;;;;;;14.80;13.87;;;10.00;99.90;;;;;;5149699;27;20545;-69
2023/04/13 08:13:27;;;;;;;14.90;14.00;;;10.00;99.90;;;;;;5150270;27;20743;-69
2023/04/13 08:15:56;;;;;;;16.33;15.53;;;10.00;99.90;;;;;;5146379;27;20512;-68
2023/04/13 08:18:25;;;;;;;14.00;13.40;;;9.90;99.90;;;;;;5150541;27;20523;-69
2023/04/13 08:20:53;;;;;;;14.30;13.50;;;9.70;99.90;;;;;;5150810;27;20500;-69
2023/04/13 08:23:21;;;;;;;15.03;14.00;;;9.80;99.90;;;;;;5150757;27;20455;-69
2023/04/13 08:25:48;;;;;;;13.93;13.23;;;9.90;99.90;;;;;;5151010;27;20459;-69
2023/04/13 08:28:15;;;;;;;14.00;12.90;;;9.90;99.90;;;;;;5150721;27;20972;-69
2023/04/13 08:30:43;;;;;;;13.97;13.30;;;10.00;99.90;;;;;;5146055;27;20470;-69
2023/04/13 08:33:11;;;;;;;14.80;13.97;;;10.20;99.90;;;;;;5150677;27;20455;-69
2023/04/13 08:35:41;;;;;;;14.90;13.57;;;10.00;99.90;;;;;;5150883;27;20486;-71
2023/04/13 08:38:08;;;;;;;14.57;13.77;;;9.90;99.90;;;;;;5150667;27;20467;-69
2023/04/13 08:40:37;;;;;;;13.07;12.47;;;9.90;99.90;;;;;;5150073;27;20504;-69
2023/04/13 08:43:04;;;;;;;16.40;15.17;;;10.10;99.90;;;;;;5151221;27;20478;-71
2023/04/13 08:45:31;;;;;;;13.83;13.23;;;10.10;99.90;;;;;;5150394;27;20462;-70
2023/04/13 08:48:00;;;;;;;14.83;13.87;;;10.20;99.90;;;;;;5150962;27;20495;-70
2023/04/13 08:50:28;;;;;;;14.57;13.87;;;10.10;99.90;;;;;;5150227;27;20481;-69
2023/04/13 08:52:57;;;;;;;15.27;14.20;;;10.10;99.90;;;;;;5151555;27;20469;-71
2023/04/13 08:55:25;;;;;;;13.43;12.83;;;10.10;99.90;;;;;;5150570;27;20478;-70
2023/04/13 08:57:56;;;;;;;14.70;13.80;;;10.20;99.90;;;;;;5150720;27;21013;-70
2023/04/13 09:00:25;;;;;;;15.90;13.43;;;10.00;99.90;;;;;;5150125;27;20459;-69
2023/04/13 09:02:59;;;;;;;14.27;13.37;;;10.20;99.90;;;;;;5147393;27;20455;-70
2023/04/13 09:05:28;;;;;;;13.60;13.00;;;10.30;99.90;;;;;;5150133;27;20483;-71
2023/04/13 09:07:57;;;;;;;14.03;12.70;;;10.30;99.90;;;;;;5150742;27;20547;-71
2023/04/13 09:10:25;;;;;;;12.30;11.80;;;10.30;99.90;;;;;;5147234;27;20463;-70
2023/04/13 09:12:52;;;;;;;13.20;12.30;;;10.30;99.90;;;;;;5153946;27;20534;-69
2023/04/13 09:15:19;;;;;;;13.93;13.23;;;10.20;99.90;;;;;;5150615;27;20869;-70
2023/04/13 09:17:47;;;;;;;15.07;14.10;;;10.20;99.90;;;;;;5150633;27;20554;-71
2023/04/13 09:20:17;;;;;;;14.23;13.37;;;10.20;99.90;;;;;;5150310;27;20452;-70
2023/04/13 09:22:45;;;;;;;15.40;14.30;;;10.50;99.90;;;;;;5149266;27;20949;-70
2023/04/13 09:25:23;;;;;;;14.63;13.93;;;11.30;99.90;;;;;;5150719;27;20830;-71
2023/04/13 09:27:51;;;;;;;16.03;14.97;;;12.20;99.90;;;;;;5150209;27;20486;-70
2023/04/13 09:30:23;;;;;;;17.63;15.87;;;12.60;99.90;;;;;;5142904;27;21020;-69
2023/04/13 09:33:03;;;;;;;16.57;15.20;;;13.00;99.90;;;;;;5150500;27;20443;-70
2023/04/13 09:35:30;;;;;;;17.10;16.20;;;13.20;99.90;;;;;;5150217;27;20447;-70
2023/04/13 09:37:58;;;;;;;19.60;17.50;;;13.10;99.90;;;;;;5149994;27;20491;-70
2023/04/13 09:40:27;;;;;;;17.00;15.60;;;13.00;99.90;;;;;;5150003;27;20869;-70
2023/04/13 09:42:55;;;;;;;16.73;15.40;;;12.80;99.90;;;;;;5150054;27;20824;-70
2023/04/13 09:45:22;;;;;;;15.80;15.00;;;12.80;99.90;;;;;;5149729;27;20467;-70
2023/04/13 09:47:51;;;;;;;16.23;15.40;;;13.10;99.90;;;;;;5149802;27;20468;-70
2023/04/13 09:50:22;;;;;;;15.57;14.87;;;13.30;99.90;;;;;;5149928;27;20713;-71
2023/04/13 09:52:59;;;;;;;17.03;15.83;;;13.60;99.90;;;;;;5149398;27;20851;-71
2023/04/13 09:55:28;;;;;;;15.80;15.00;;;13.20;99.90;;;;;;5149921;27;20477;-71
2023/04/13 09:57:55;;;;;;;16.37;15.43;;;13.50;99.90;;;;;;5149276;27;20455;-71
2023/04/13 10:00:24;;;;;;;16.40;15.50;;;13.00;99.90;;;;;;5142298;27;20555;-70
2023/04/13 10:02:51;;;;;;;16.20;15.40;;;12.90;99.90;;;;;;5150218;27;20451;-72
2023/04/13 10:05:19;;;;;;;16.20;15.40;;;12.50;99.90;;;;;;5149333;27;20805;-70
2023/04/13 10:07:47;;;;;;;15.87;15.07;;;12.10;99.90;;;;;;5148962;27;20558;-70
2023/04/13 10:10:14;;;;;;;15.93;15.13;;;11.80;99.90;;;;;;5149262;27;20452;-72
2023/04/13 10:12:45;;;;;;;16.77;15.43;;;11.50;99.90;;;;;;5153841;27;20458;-72
2023/04/13 10:15:27;;;;;;;16.83;15.70;;;11.50;99.90;;;;;;5149705;27;20454;-71
2023/04/13 10:18:03;;;;;;;16.40;15.30;;;11.20;99.90;;;;;;5149429;27;20950;-72
2023/04/13 10:20:30;;;;;;;17.43;15.63;;;11.20;99.90;;;;;;5149372;27;20842;-71
2023/04/13 10:22:58;;;;;;;17.40;15.67;;;11.40;99.90;;;;;;5148796;27;20459;-72
2023/04/13 10:25:25;;;;;;;16.77;15.50;;;11.50;99.90;;;;;;5149265;27;20511;-71
2023/04/13 10:28:00;;;;;;;15.80;15.00;;;11.60;99.90;;;;;;5146856;27;20961;-72
2023/04/13 10:30:27;;;;;;;16.80;15.50;;;11.70;99.90;;;;;;5141521;27;20450;-72
2023/04/13 10:33:05;;;;;;;15.83;14.93;;;12.20;99.90;;;;;;5149808;27;20451;-71
2023/04/13 10:35:35;;;;;;;16.80;15.70;;;12.50;99.90;;;;;;5149361;27;20455;-70
2023/04/13 10:38:03;;;;;;;17.87;16.43;;;12.40;99.90;;;;;;5148797;27;20451;-70
2023/04/13 10:40:30;;;;;;;16.13;15.23;;;12.40;99.90;;;;;;5148803;27;20456;-70
2023/04/13 10:42:58;;;;;;;15.87;15.07;;;12.30;99.90;;;;;;5142491;27;20506;-71
2023/04/13 10:45:31;;;;;;;16.60;15.40;;;11.80;99.90;;;;;;5149084;27;20942;-70
2023/04/13 10:47:58;;;;;;;16.90;15.67;;;12.20;99.90;;;;;;5148390;27;20532;-71
2023/04/13 10:50:26;;;;;;;16.13;15.03;;;12.80;99.90;;;;;;5148604;27;20822;-71
2023/04/13 10:52:57;;;;;;;18.00;16.80;;;13.30;99.90;;;;;;5148600;27;20504;-71
2023/04/13 10:55:26;;;;;;;15.83;15.03;;;13.40;99.90;;;;;;5142478;27;20589;-69
2023/04/13 10:57:55;;;;;;;19.43;17.87;;;13.00;99.90;;;;;;5148256;27;20459;-69
2023/04/13 11:00:24;;;;;;;17.20;16.00;;;12.70;99.90;;;;;;5140163;27;20508;-71
2023/04/13 11:02:54;;;;;;;17.00;16.00;;;12.60;99.90;;;;;;5148233;27;20797;-72
2023/04/13 11:05:21;;;;;;;18.90;17.50;;;12.40;99.90;;;;;;5148539;27;20458;-72
2023/04/13 11:07:49;;;;;;;16.40;15.60;;;12.10;99.90;;;;;;5148633;27;20610;-71
2023/04/13 11:10:23;;;;;;;15.73;15.03;;;11.90;99.90;;;;;;5145335;27;20508;-71
2023/04/13 11:12:51;;;;;;;16.60;15.30;;;11.70;99.90;;;;;;5146121;27;20459;-71
2023/04/13 11:15:24;;;;;;;16.93;16.00;;;11.80;99.90;;;;;;5148394;27;20541;-69
2023/04/13 11:17:55;;;;;;;16.67;15.73;;;11.80;99.90;;;;;;5148462;27;20957;-70
2023/04/13 11:20:33;;;;;;;15.20;14.50;;;11.90;99.90;;;;;;5147812;27;20538;-69
2023/04/13 11:23:02;;;;;;;16.47;15.47;;;12.00;99.90;;;;;;5148236;27;20454;-69
2023/04/13 11:25:29;;;;;;;17.03;16.00;;;12.20;99.90;;;;;;5142750;27;20451;-69
2023/04/13 11:27:57;;;;;;;16.33;15.53;;;12.00;99.90;;;;;;5147960;27;20471;-69
2023/04/13 11:30:26;;;;;;;18.53;15.73;;;12.00;99.90;;;;;;5135760;27;20455;-69
2023/04/13 11:32:54;;;;;;;16.57;15.57;;;12.30;99.90;;;;;;5141497;27;20556;-69
2023/04/13 11:35:22;;;;;;;16.80;15.80;;;12.50;99.90;;;;;;5138165;27;20483;-69
2023/04/13 11:37:51;;;;;;;15.73;14.93;;;12.70;99.90;;;;;;5143033;27;20451;-68
2023/04/13 11:40:21;;;;;;;17.60;16.50;;;12.90;99.90;;;;;;5142207;27;20880;-69
2023/04/13 11:42:50;;;;;;;18.33;16.30;;;13.10;99.90;;;;;;5148088;27;20502;-70
2023/04/13 11:45:17;;;;;;;15.97;15.17;;;14.00;99.90;;;;;;5143063;27;20447;-68
2023/04/13 11:47:46;;;;;;;15.80;15.00;;;14.40;99.90;;;;;;5148285;27;20457;-69
2023/04/13 11:50:15;;;;;;;18.23;16.47;;;15.10;99.90;;;;;;5147075;27;20538;-69
2023/04/13 11:52:43;;;;;;;16.77;15.87;;;14.80;99.90;;;;;;5143220;27;20455;-69
2023/04/13 11:55:10;;;;;;;16.60;15.70;;;14.30;99.90;;;;;;5147744;27;20487;-70
2023/04/13 11:57:39;;;;;;;18.43;17.27;;;13.90;99.90;;;;;;5147594;27;20459;-69
2023/04/13 12:00:16;;;;;;;18.30;16.87;;;13.70;99.90;;;;;;5144395;27;20977;-69
2023/04/13 12:02:46;;;;;;;17.57;16.63;;;13.90;99.90;;;;;;5140756;27;20451;-70
2023/04/13 12:05:24;;;;;;;18.13;16.97;;;14.10;99.90;;;;;;5147286;27;20454;-69
2023/04/13 12:07:52;;;;;;;16.70;15.80;;;14.00;99.90;;;;;;5148124;27;20466;-68
2023/04/13 12:10:23;;;;;;;32.10;17.30;;;14.00;99.90;;;;;;5148178;27;20455;-69
2023/04/13 12:12:59;;;;;;;17.73;16.73;;;14.60;99.90;;;;;;5147107;27;20443;-68
2023/04/13 12:15:28;;;;;;;19.80;16.83;;;15.70;99.90;;;;;;5149104;27;20458;-69
2023/04/13 12:17:57;;;;;;;18.13;17.03;;;16.00;99.90;;;;;;5150899;27;20516;-69
2023/04/13 12:20:25;;;;;;;17.37;16.57;;;15.20;99.90;;;;;;5151080;27;20455;-69
2023/04/13 12:22:52;;;;;;;19.73;17.67;;;14.90;99.90;;;;;;5150445;27;20459;-70
2023/04/13 12:25:21;;;;;;;18.47;17.47;;;15.00;99.90;;;;;;5151315;27;20462;-70
2023/04/13 12:27:50;;;;;;;18.50;17.40;;;14.50;99.90;;;;;;5150809;27;20474;-70
2023/04/13 12:30:19;;;;;;;17.90;17.00;;;14.60;99.90;;;;;;5150959;27;20462;-70
2023/04/13 12:32:48;;;;;;;19.50;18.30;;;14.70;99.90;;;;;;5149415;27;20453;-69
2023/04/13 12:35:18;;;;;;;17.53;16.73;;;15.10;99.90;;;;;;5150391;27;20531;-69
2023/04/13 12:37:45;;;;;;;18.90;17.53;;;15.50;99.90;;;;;;5150644;27;20970;-70
2023/04/13 12:40:14;;;;;;;17.83;16.70;;;16.10;99.90;;;;;;5150531;27;21024;-70
2023/04/13 12:42:42;;;;;;;17.70;16.53;;;16.70;99.90;;;;;;5148053;27;20479;-70
2023/04/13 12:45:10;;;;;;;18.13;17.03;;;16.60;98.50;;;;;;5150737;27;20883;-70
2023/04/13 12:47:38;;;;;;;18.43;17.43;;;16.00;99.10;;;;;;5150814;27;20456;-70
2023/04/13 12:50:06;;;;;;;17.50;16.70;;;15.50;98.50;;;;;;5149482;27;20487;-69